createdAt,value
2022-11-16T00:00:05.869Z,98206.20
2022-11-16T00:02:54.472Z,98197.60
2022-11-16T00:05:27.956Z,98193.80
2022-11-16T00:07:56.554Z,98193.00
2022-11-16T00:10:24.658Z,98189.20
2022-11-16T00:12:52.835Z,98195.00
2022-11-16T00:15:20.579Z,98181.40
2022-11-16T00:17:48.355Z,98186.40
2022-11-16T00:20:16.355Z,98183.00
2022-11-16T00:22:44.175Z,98182.40
2022-11-16T00:25:11.917Z,98181.20
2022-11-16T00:27:39.553Z,98176.80
2022-11-16T00:30:09.923Z,98178.80
2022-11-16T00:32:37.671Z,98177.60
2022-11-16T00:35:06.032Z,98178.80
2022-11-16T00:37:33.841Z,98177.40
2022-11-16T00:40:01.549Z,98180.00
2022-11-16T00:42:29.216Z,98178.80
2022-11-16T00:44:56.860Z,98179.20
2022-11-16T00:47:24.553Z,98179.60
2022-11-16T00:49:52.246Z,98180.60
2022-11-16T00:52:19.841Z,98176.80
2022-11-16T00:54:47.626Z,98182.20
2022-11-16T00:57:15.356Z,98174.60
2022-11-16T00:59:43.049Z,98169.60
2022-11-16T01:02:10.796Z,98165.20
2022-11-16T01:04:38.510Z,98173.40
2022-11-16T01:07:06.344Z,98175.60
2022-11-16T01:09:34.190Z,98173.40
2022-11-16T01:12:11.107Z,98164.00
2022-11-16T01:14:45.892Z,98165.00
2022-11-16T01:17:15.022Z,98160.80
2022-11-16T01:19:42.763Z,98156.00
2022-11-16T01:22:10.614Z,98149.60
2022-11-16T01:24:38.287Z,98142.40
2022-11-16T01:27:05.987Z,98143.60
2022-11-16T01:29:33.678Z,98136.00
2022-11-16T01:32:01.410Z,98143.40
2022-11-16T01:34:29.061Z,98133.60
2022-11-16T01:36:56.773Z,98133.40
2022-11-16T01:39:24.546Z,98123.20
2022-11-16T01:41:52.369Z,98117.20
2022-11-16T01:44:32.241Z,98117.00
2022-11-16T01:47:03.006Z,98119.60
2022-11-16T01:49:35.110Z,98115.20
2022-11-16T01:52:09.862Z,98120.20
2022-11-16T01:54:42.689Z,98114.40
2022-11-16T01:57:18.218Z,98112.80
2022-11-16T01:59:49.919Z,98112.60
2022-11-16T02:02:17.634Z,98110.80
2022-11-16T02:04:48.808Z,98105.60
2022-11-16T02:07:26.697Z,98103.40
2022-11-16T02:10:06.669Z,98105.80
2022-11-16T02:13:07.402Z,98103.40
2022-11-16T02:15:50.207Z,98106.00
2022-11-16T02:19:07.723Z,98103.80
2022-11-16T02:21:51.363Z,98103.20
2022-11-16T02:24:42.668Z,98109.40
2022-11-16T02:27:52.762Z,98114.20
2022-11-16T02:30:21.803Z,98105.20
2022-11-16T02:33:11.656Z,98104.20
2022-11-16T02:35:49.070Z,98097.60
2022-11-16T02:38:27.749Z,98089.40
2022-11-16T02:41:05.034Z,98082.20
2022-11-16T02:43:42.972Z,98077.60
2022-11-16T02:46:21.771Z,98077.60
2022-11-16T02:48:59.017Z,98074.00
2022-11-16T02:51:29.055Z,98069.80
2022-11-16T02:54:14.662Z,98070.40
2022-11-16T02:57:02.049Z,98072.20
2022-11-16T02:59:49.058Z,98073.60
2022-11-16T03:02:50.919Z,98072.20
2022-11-16T03:05:32.286Z,98073.20
2022-11-16T03:08:21.042Z,98064.60
2022-11-16T03:11:24.529Z,98054.60
2022-11-16T03:13:57.770Z,98058.80
2022-11-16T03:16:50.941Z,98055.60
2022-11-16T03:19:42.514Z,98048.00
2022-11-16T03:22:44.147Z,98044.00
2022-11-16T03:25:18.371Z,98042.60
2022-11-16T03:28:07.868Z,98034.60
2022-11-16T03:30:44.181Z,98034.40
2022-11-16T03:33:39.796Z,98029.20
2022-11-16T03:36:29.451Z,98038.00
2022-11-16T03:39:05.498Z,98045.40
2022-11-16T03:41:37.339Z,98039.20
2022-11-16T03:44:08.888Z,98032.40
2022-11-16T03:46:37.082Z,98038.80
2022-11-16T03:49:06.058Z,98041.40
2022-11-16T03:51:33.883Z,98041.00
2022-11-16T03:54:01.594Z,98042.80
2022-11-16T03:56:29.401Z,98039.80
2022-11-16T03:58:57.160Z,98036.60
2022-11-16T04:01:24.923Z,98032.40
2022-11-16T04:03:52.579Z,98030.40
2022-11-16T04:06:46.639Z,98028.20
2022-11-16T04:09:32.834Z,98024.40
2022-11-16T04:12:19.364Z,98030.20
2022-11-16T04:15:05.603Z,98023.60
2022-11-16T04:17:52.124Z,98025.60
2022-11-16T04:20:38.856Z,98027.40
2022-11-16T04:23:32.733Z,98025.40
2022-11-16T04:26:00.586Z,98018.00
2022-11-16T04:28:34.449Z,98016.00
2022-11-16T04:31:24.041Z,98016.60
2022-11-16T04:34:11.980Z,98007.60
2022-11-16T04:36:58.395Z,98001.60
2022-11-16T04:39:26.054Z,97994.40
2022-11-16T04:42:12.518Z,97993.00
2022-11-16T04:44:59.010Z,97993.40
2022-11-16T04:47:26.747Z,97987.20
2022-11-16T04:49:54.463Z,97987.60
2022-11-16T04:52:22.106Z,97990.40
2022-11-16T04:54:50.012Z,97987.40
2022-11-16T04:57:17.640Z,97990.00
2022-11-16T04:59:45.347Z,97989.60
2022-11-16T05:02:13.252Z,97993.60
2022-11-16T05:04:43.780Z,97990.80
2022-11-16T05:07:14.561Z,97984.40
2022-11-16T05:09:48.207Z,97990.80
2022-11-16T05:12:24.954Z,97995.60
2022-11-16T05:14:55.236Z,97993.80
2022-11-16T05:17:25.517Z,97992.00
2022-11-16T05:20:13.206Z,97998.60
2022-11-16T05:22:41.275Z,97995.80
2022-11-16T05:25:10.868Z,97995.20
2022-11-16T05:27:38.979Z,97994.40
2022-11-16T05:30:07.686Z,97998.00
2022-11-16T05:32:35.349Z,97990.80
2022-11-16T05:35:03.367Z,97993.20
2022-11-16T05:37:31.017Z,97996.60
2022-11-16T05:39:58.877Z,97994.20
2022-11-16T05:42:26.706Z,97996.80
2022-11-16T05:44:54.512Z,97998.80
2022-11-16T05:47:22.331Z,97989.60
2022-11-16T05:49:50.003Z,97985.60
2022-11-16T05:52:17.648Z,97984.60
2022-11-16T05:54:45.442Z,97984.40
2022-11-16T05:57:13.108Z,97980.00
2022-11-16T05:59:40.705Z,97975.00
2022-11-16T06:02:08.588Z,97979.80
2022-11-16T06:04:36.314Z,97973.60
2022-11-16T06:07:04.315Z,97974.20
2022-11-16T06:09:32.126Z,97976.80
2022-11-16T06:11:59.776Z,97976.20
2022-11-16T06:14:27.592Z,97972.00
2022-11-16T06:16:55.304Z,97972.60
2022-11-16T06:19:27.020Z,97965.20
2022-11-16T06:21:58.920Z,97967.20
2022-11-16T06:24:26.581Z,97962.40
2022-11-16T06:26:54.537Z,97971.00
2022-11-16T06:29:22.375Z,97972.40
2022-11-16T06:31:50.451Z,97972.40
2022-11-16T06:34:18.109Z,97966.80
2022-11-16T06:36:45.842Z,97967.00
2022-11-16T06:39:13.552Z,97962.00
2022-11-16T06:41:41.701Z,97957.80
2022-11-16T06:44:09.966Z,97964.00
2022-11-16T06:46:37.578Z,97970.40
2022-11-16T06:49:05.272Z,97965.60
2022-11-16T06:51:32.917Z,97967.80
2022-11-16T06:54:00.623Z,97968.00
2022-11-16T06:56:28.432Z,97975.00
2022-11-16T06:58:57.220Z,97970.20
2022-11-16T07:01:24.991Z,97974.80
2022-11-16T07:03:52.762Z,97970.60
2022-11-16T07:06:20.459Z,97966.80
2022-11-16T07:08:48.153Z,97961.60
2022-11-16T07:11:15.857Z,97957.80
2022-11-16T07:13:43.510Z,97954.80
2022-11-16T07:16:12.514Z,97952.60
2022-11-16T07:18:42.086Z,97961.20
2022-11-16T07:21:14.296Z,97955.80
2022-11-16T07:23:42.144Z,97956.00
2022-11-16T07:26:11.374Z,97961.40
2022-11-16T07:28:44.906Z,97964.40
2022-11-16T07:31:16.609Z,97968.20
2022-11-16T07:33:44.291Z,97966.40
2022-11-16T07:36:14.706Z,97959.00
2022-11-16T07:38:42.593Z,97954.80
2022-11-16T07:41:14.743Z,97951.40
2022-11-16T07:43:42.597Z,97950.20
2022-11-16T07:49:11.311Z,97956.80
2022-11-16T07:51:39.297Z,97951.60
2022-11-16T07:54:07.017Z,97952.00
2022-11-16T07:56:34.711Z,97946.80
2022-11-16T07:59:02.431Z,97939.60
2022-11-16T08:01:30.199Z,97931.40
2022-11-16T08:03:57.954Z,97930.00
2022-11-16T08:06:30.904Z,97921.40
2022-11-16T08:08:59.637Z,97923.40
2022-11-16T08:11:27.751Z,97922.40
2022-11-16T08:13:57.339Z,97920.60
2022-11-16T08:16:25.325Z,97917.00
2022-11-16T08:18:53.084Z,97927.00
2022-11-16T08:21:20.767Z,97924.60
2022-11-16T08:23:51.553Z,97924.40
2022-11-16T08:26:22.567Z,97930.20
2022-11-16T08:28:53.557Z,97936.60
2022-11-16T08:31:26.238Z,97934.00
2022-11-16T08:33:54.411Z,97935.80
2022-11-16T08:36:22.280Z,97932.40
2022-11-16T08:38:51.365Z,97926.40
2022-11-16T08:41:20.593Z,97918.80
2022-11-16T08:43:50.647Z,97922.20
2022-11-16T08:46:18.499Z,97923.00
2022-11-16T08:48:46.311Z,97931.20
2022-11-16T08:54:05.150Z,97933.40
2022-11-16T08:56:33.335Z,97932.00
2022-11-16T08:59:01.190Z,97941.80
2022-11-16T09:01:32.581Z,97941.20
2022-11-16T09:04:00.713Z,97948.00
2022-11-16T09:06:28.517Z,97939.40
2022-11-16T09:08:57.065Z,97943.60
2022-11-16T09:11:26.056Z,97938.00
2022-11-16T09:16:41.871Z,97937.80
2022-11-16T09:19:10.853Z,97933.40
2022-11-16T09:21:38.637Z,97938.60
2022-11-16T09:24:06.439Z,97928.40
2022-11-16T09:26:34.061Z,97931.40
2022-11-16T09:29:04.367Z,97927.40
2022-11-16T09:31:37.422Z,97924.20
2022-11-16T09:34:05.668Z,97925.60
2022-11-16T09:36:34.057Z,97925.20
2022-11-16T09:39:28.919Z,97928.80
2022-11-16T09:42:19.587Z,97932.20
2022-11-16T09:45:07.703Z,97924.20
2022-11-16T09:47:44.963Z,97924.20
2022-11-16T09:50:43.440Z,97932.60
2022-11-16T09:53:40.657Z,97933.80
2022-11-16T09:56:22.254Z,97929.60
2022-11-16T09:58:56.265Z,97926.20
2022-11-16T10:01:32.681Z,97925.20
2022-11-16T10:04:18.787Z,97925.00
2022-11-16T10:06:56.043Z,97921.20
2022-11-16T10:09:25.756Z,97925.00
2022-11-16T10:12:22.121Z,97916.60
2022-11-16T10:15:12.855Z,97922.40
2022-11-16T10:18:00.466Z,97927.40
2022-11-16T10:21:13.510Z,97928.40
2022-11-16T10:24:05.211Z,97926.00
2022-11-16T10:27:09.757Z,97917.00
2022-11-16T10:30:09.370Z,97908.60
2022-11-16T10:32:47.790Z,97912.80
2022-11-16T10:35:22.873Z,97917.60
2022-11-16T10:37:52.418Z,97913.00
2022-11-16T10:40:44.711Z,97912.80
2022-11-16T10:43:28.452Z,97916.80
2022-11-16T10:46:19.024Z,97921.40
2022-11-16T10:49:07.285Z,97914.80
2022-11-16T10:51:35.043Z,97912.20
2022-11-16T10:54:12.221Z,97908.60
2022-11-16T10:56:48.380Z,97905.00
2022-11-16T10:59:19.905Z,97900.00
2022-11-16T11:01:57.525Z,97903.20
2022-11-16T11:04:29.356Z,97901.00
2022-11-16T11:07:00.699Z,97893.20
2022-11-16T11:09:37.063Z,97887.20
2022-11-16T11:12:36.611Z,97886.80
2022-11-16T11:15:26.145Z,97892.20
2022-11-16T11:18:24.055Z,97888.60
2022-11-16T11:21:20.106Z,97887.80
2022-11-16T11:23:59.493Z,97894.80
2022-11-16T11:26:41.600Z,97892.20
2022-11-16T11:29:34.448Z,97890.40
2022-11-16T11:32:13.360Z,97888.20
2022-11-16T11:34:56.278Z,97889.20
2022-11-16T11:37:31.863Z,97891.40
2022-11-16T11:40:20.172Z,97885.00
2022-11-16T11:42:59.854Z,97888.60
2022-11-16T11:46:14.055Z,97889.20
2022-11-16T11:49:03.516Z,97890.80
2022-11-16T11:51:41.081Z,97885.80
2022-11-16T11:54:45.636Z,97891.00
2022-11-16T11:57:22.210Z,97880.20
2022-11-16T11:59:53.677Z,97881.40
2022-11-16T12:02:36.221Z,97888.80
2022-11-16T12:05:45.673Z,97885.80
2022-11-16T12:09:12.093Z,97889.60
2022-11-16T12:11:52.201Z,97880.40
2022-11-16T12:14:43.962Z,97873.80
2022-11-16T12:17:33.287Z,97865.60
2022-11-16T12:20:41.427Z,97863.80
2022-11-16T12:23:38.894Z,97864.40
2022-11-16T12:26:38.578Z,97853.40
2022-11-16T12:29:25.671Z,97851.40
2022-11-16T12:32:34.823Z,97839.00
2022-11-16T12:35:37.979Z,97836.80
2022-11-16T12:39:00.959Z,97828.60
2022-11-16T12:41:51.093Z,97832.40
2022-11-16T12:44:58.849Z,97832.20
2022-11-16T12:47:48.494Z,97828.80
2022-11-16T12:50:59.799Z,97829.40
2022-11-16T12:53:55.201Z,97834.80
2022-11-16T12:56:59.666Z,97839.80
2022-11-16T13:00:01.305Z,97838.20
2022-11-16T13:03:10.196Z,97830.00
2022-11-16T13:05:59.012Z,97825.00
2022-11-16T13:09:04.555Z,97825.00
2022-11-16T13:11:40.175Z,97826.20
2022-11-16T13:14:20.118Z,97825.20
2022-11-16T13:16:50.163Z,97829.80
2022-11-16T13:19:18.528Z,97836.80
2022-11-16T13:22:21.935Z,97840.80
2022-11-16T13:25:40.472Z,97837.40
2022-11-16T13:28:30.645Z,97845.80
2022-11-16T13:31:19.416Z,97839.40
2022-11-16T13:33:53.397Z,97840.40
2022-11-16T13:36:45.527Z,97835.20
2022-11-16T13:39:23.044Z,97833.60
2022-11-16T13:42:12.091Z,97832.40
2022-11-16T13:44:40.158Z,97831.60
2022-11-16T13:47:24.807Z,97822.40
2022-11-16T13:49:57.780Z,97824.00
2022-11-16T13:53:40.869Z,97826.00
2022-11-16T13:55:42.796Z,97829.40
2022-11-16T13:58:20.869Z,97826.80
2022-11-16T14:01:18.946Z,97833.80
2022-11-16T14:03:52.283Z,97832.00
2022-11-16T14:06:19.884Z,97827.40
2022-11-16T14:08:51.802Z,97826.00
2022-11-16T14:11:37.573Z,97823.80
2022-11-16T14:14:11.702Z,97822.80
2022-11-16T14:16:49.432Z,97817.40
2022-11-16T14:19:47.618Z,97814.60
2022-11-16T14:23:11.324Z,97812.20
2022-11-16T14:26:21.675Z,97813.20
2022-11-16T14:29:14.237Z,97811.80
2022-11-16T14:31:54.176Z,97815.00
2022-11-16T14:34:43.528Z,97809.60
2022-11-16T14:37:34.855Z,97810.80
2022-11-16T14:40:20.560Z,97808.00
2022-11-16T14:43:19.959Z,97809.20
2022-11-16T14:45:56.272Z,97802.40
2022-11-16T14:48:26.245Z,97804.60
2022-11-16T14:51:10.012Z,97803.60
2022-11-16T14:53:44.438Z,97800.40
2022-11-16T14:56:18.517Z,97804.20
2022-11-16T14:59:01.387Z,97809.60
2022-11-16T15:01:39.644Z,97806.60
2022-11-16T15:04:11.265Z,97810.20
2022-11-16T15:06:49.841Z,97800.40
2022-11-16T15:09:33.717Z,97798.60
2022-11-16T15:12:32.873Z,97795.40
2022-11-16T15:15:31.148Z,97813.40
2022-11-16T15:17:58.722Z,97811.80
2022-11-16T15:20:33.882Z,97818.20
2022-11-16T15:23:04.967Z,97816.20
2022-11-16T15:25:37.544Z,97813.40
2022-11-16T15:28:21.033Z,97807.40
2022-11-16T15:31:02.239Z,97796.60
2022-11-16T15:33:33.307Z,97798.00
2022-11-16T15:36:25.627Z,97809.00
2022-11-16T15:38:57.496Z,97811.20
2022-11-16T15:41:29.293Z,97822.60
2022-11-16T15:44:16.540Z,97813.20
2022-11-16T15:46:50.248Z,97811.60
2022-11-16T15:49:40.540Z,97815.80
2022-11-16T15:52:08.250Z,97813.40
2022-11-16T15:54:55.564Z,97810.60
2022-11-16T15:57:25.128Z,97813.80
2022-11-16T15:59:56.799Z,97813.80
2022-11-16T16:02:31.260Z,97812.00
2022-11-16T16:04:59.021Z,97813.80
2022-11-16T16:07:42.479Z,97813.00
2022-11-16T16:10:25.295Z,97814.00
2022-11-16T16:12:59.943Z,97812.40
2022-11-16T16:15:36.031Z,97811.20
2022-11-16T16:18:36.801Z,97816.40
2022-11-16T16:21:04.708Z,97812.40
2022-11-16T16:23:32.722Z,97817.60
2022-11-16T16:26:03.972Z,97809.60
2022-11-16T16:28:31.608Z,97812.40
2022-11-16T16:30:59.442Z,97811.00
2022-11-16T16:33:29.854Z,97812.00
2022-11-16T16:35:57.768Z,97814.40
2022-11-16T16:38:25.505Z,97816.80
2022-11-16T16:40:53.281Z,97816.80
2022-11-16T16:43:20.968Z,97811.80
2022-11-16T16:45:48.642Z,97818.40
2022-11-16T16:48:16.407Z,97816.20
2022-11-16T16:50:44.281Z,97809.40
2022-11-16T16:53:15.353Z,97807.40
2022-11-16T16:55:43.925Z,97808.40
2022-11-16T16:58:13.663Z,97811.20
2022-11-16T17:00:42.204Z,97814.20
2022-11-16T17:03:10.124Z,97819.20
2022-11-16T17:05:37.821Z,97820.40
2022-11-16T17:08:06.630Z,97817.80
2022-11-16T17:10:34.528Z,97810.20
2022-11-16T17:13:03.188Z,97812.80
2022-11-16T17:15:31.025Z,97815.20
2022-11-16T17:17:59.938Z,97818.00
2022-11-16T17:20:27.812Z,97817.20
2022-11-16T17:22:56.431Z,97816.60
2022-11-16T17:25:25.148Z,97813.00
2022-11-16T17:27:53.016Z,97820.60
2022-11-16T17:30:20.792Z,97832.60
2022-11-16T17:32:48.580Z,97827.20
2022-11-16T17:35:16.854Z,97829.20
2022-11-16T17:37:44.634Z,97830.00
2022-11-16T17:40:13.087Z,97836.00
2022-11-16T17:42:41.012Z,97838.20
2022-11-16T17:45:09.191Z,97836.60
2022-11-16T17:47:36.962Z,97835.80
2022-11-16T17:50:05.367Z,97837.20
2022-11-16T17:52:33.043Z,97839.40
2022-11-16T17:55:00.817Z,97842.80
2022-11-16T17:57:28.384Z,97836.40
2022-11-16T17:59:56.124Z,97839.40
2022-11-16T18:02:23.793Z,97841.00
2022-11-16T18:04:51.692Z,97844.80
2022-11-16T18:07:19.477Z,97848.60
2022-11-16T18:09:47.151Z,97850.00
2022-11-16T18:12:14.837Z,97850.40
2022-11-16T18:14:54.770Z,97846.80
2022-11-16T18:17:31.360Z,97843.80
2022-11-16T18:19:59.066Z,97846.60
2022-11-16T18:22:27.006Z,97841.80
2022-11-16T18:24:54.828Z,97846.00
2022-11-16T18:27:22.793Z,97835.80
2022-11-16T18:29:51.789Z,97835.00
2022-11-16T18:32:19.814Z,97837.40
2022-11-16T18:34:47.557Z,97841.80
2022-11-16T18:37:15.216Z,97839.80
2022-11-16T18:39:42.855Z,97832.80
2022-11-16T18:42:12.330Z,97832.60
2022-11-16T18:44:40.040Z,97826.40
2022-11-16T18:47:07.707Z,97824.80
2022-11-16T18:49:37.248Z,97835.00
2022-11-16T18:52:05.169Z,97829.60
2022-11-16T18:54:32.855Z,97837.80
2022-11-16T18:57:00.560Z,97832.40
2022-11-16T18:59:28.286Z,97836.80
2022-11-16T19:01:55.944Z,97834.40
2022-11-16T19:04:23.798Z,97831.00
2022-11-16T19:06:53.327Z,97831.40
2022-11-16T19:09:21.160Z,97828.40
2022-11-16T19:11:50.734Z,97829.40
2022-11-16T19:14:18.545Z,97820.80
2022-11-16T19:16:54.005Z,97827.20
2022-11-16T19:19:24.389Z,97827.00
2022-11-16T19:21:52.185Z,97832.40
2022-11-16T19:24:20.192Z,97829.00
2022-11-16T19:26:47.805Z,97833.00
2022-11-16T19:29:15.552Z,97836.40
2022-11-16T19:31:43.216Z,97842.80
2022-11-16T19:34:13.177Z,97847.40
2022-11-16T19:36:41.036Z,97836.20
2022-11-16T19:39:08.760Z,97834.80
2022-11-16T19:41:36.485Z,97834.20
2022-11-16T19:44:04.217Z,97833.60
2022-11-16T19:46:33.916Z,97833.00
2022-11-16T19:49:01.720Z,97831.40
2022-11-16T19:51:33.643Z,97836.80
2022-11-16T19:54:02.775Z,97836.80
2022-11-16T19:56:31.050Z,97839.40
2022-11-16T19:58:58.746Z,97842.80
2022-11-16T20:01:29.355Z,97847.20
2022-11-16T20:04:00.886Z,97846.20
2022-11-16T20:06:32.529Z,97850.60
2022-11-16T20:09:08.601Z,97853.20
2022-11-16T20:11:39.103Z,97842.00
2022-11-16T20:14:10.257Z,97839.20
2022-11-16T20:16:41.453Z,97839.40
2022-11-16T20:19:10.346Z,97844.40
2022-11-16T20:21:42.789Z,97838.80
2022-11-16T20:24:15.938Z,97833.40
2022-11-16T20:26:49.212Z,97834.60
2022-11-16T20:29:18.974Z,97839.20
2022-11-16T20:31:47.289Z,97836.20
2022-11-16T20:34:17.529Z,97839.00
2022-11-16T20:36:47.652Z,97834.40
2022-11-16T20:39:19.248Z,97838.60
2022-11-16T20:41:48.212Z,97834.60
2022-11-16T20:44:23.700Z,97834.60
2022-11-16T20:46:52.631Z,97835.40
2022-11-16T20:49:20.819Z,97831.60
2022-11-16T20:51:50.283Z,97838.20
2022-11-16T20:54:18.435Z,97835.00
2022-11-16T20:56:48.192Z,97836.60
2022-11-16T20:59:16.770Z,97838.20
2022-11-16T21:01:47.843Z,97837.40
2022-11-16T21:04:16.435Z,97839.40
2022-11-16T21:06:44.303Z,97838.60
2022-11-16T21:09:15.607Z,97835.40
2022-11-16T21:12:02.010Z,97834.60
2022-11-16T21:14:29.773Z,97823.00
2022-11-16T21:16:57.396Z,97824.80
2022-11-16T21:19:25.113Z,97828.20
2022-11-16T21:21:52.689Z,97828.80
2022-11-16T21:24:21.773Z,97831.60
2022-11-16T21:26:49.838Z,97826.60
2022-11-16T21:29:17.818Z,97828.00
2022-11-16T21:31:45.524Z,97824.20
2022-11-16T21:34:13.768Z,97824.40
2022-11-16T21:36:41.424Z,97828.40
2022-11-16T21:39:09.635Z,97832.00
2022-11-16T21:41:37.596Z,97828.20
2022-11-16T21:44:05.395Z,97830.00
2022-11-16T21:46:33.125Z,97826.20
2022-11-16T21:49:00.788Z,97825.60
2022-11-16T21:51:28.503Z,97818.60
2022-11-16T21:53:56.655Z,97827.60
2022-11-16T21:56:26.150Z,97834.60
2022-11-16T21:58:54.593Z,97832.80
2022-11-16T22:01:23.732Z,97833.00
2022-11-16T22:04:10.868Z,97837.60
2022-11-16T22:06:57.531Z,97836.20
2022-11-16T22:09:25.245Z,97832.60
2022-11-16T22:11:52.922Z,97829.60
2022-11-16T22:14:20.739Z,97829.40
2022-11-16T22:16:48.420Z,97831.20
2022-11-16T22:19:16.020Z,97839.80
2022-11-16T22:21:43.825Z,97839.60
2022-11-16T22:24:11.481Z,97841.00
2022-11-16T22:26:40.024Z,97842.40
2022-11-16T22:29:07.804Z,97846.80
2022-11-16T22:31:36.301Z,97849.80
2022-11-16T22:34:04.261Z,97848.40
2022-11-16T22:36:31.934Z,97850.80
2022-11-16T22:39:00.715Z,97842.80
2022-11-16T22:41:28.379Z,97839.80
2022-11-16T22:43:56.084Z,97838.00
2022-11-16T22:46:23.721Z,97841.40
2022-11-16T22:48:51.439Z,97841.60
2022-11-16T22:51:30.217Z,97838.80
2022-11-16T22:54:01.632Z,97841.60
2022-11-16T22:56:32.176Z,97832.80
2022-11-16T22:59:05.411Z,97828.60
2022-11-16T23:01:33.407Z,97821.40
2022-11-16T23:04:01.719Z,97823.00
2022-11-16T23:06:29.511Z,97828.60
2022-11-16T23:08:57.666Z,97828.60
2022-11-16T23:11:46.965Z,97828.60
2022-11-16T23:14:36.146Z,97831.40
2022-11-16T23:17:04.851Z,97832.40
2022-11-16T23:19:52.356Z,97835.40
2022-11-16T23:22:40.702Z,97833.00
2022-11-16T23:25:30.283Z,97829.40
2022-11-16T23:28:06.735Z,97829.20
2022-11-16T23:30:36.460Z,97829.60
2022-11-16T23:33:04.180Z,97829.40
2022-11-16T23:35:32.457Z,97834.60
2022-11-16T23:38:06.132Z,97830.40
2022-11-16T23:40:39.750Z,97826.20
2022-11-16T23:43:29.600Z,97823.20
2022-11-16T23:45:57.283Z,97825.80
2022-11-16T23:48:25.008Z,97827.40
2022-11-16T23:50:52.699Z,97822.80
2022-11-16T23:53:20.436Z,97819.40
2022-11-16T23:55:48.041Z,97819.20
2022-11-16T23:58:15.740Z,97819.60
